Time;durP1;ratioP1;P1;durP2;ratioP2;P2;SDS_P1;SDS_P2;PMS_P1;PMS_P2;Temp;Humidity;BMP_temperature;BMP_pressure;BME280_temperature;BME280_humidity;BME280_pressure;Samples;Min_cycle;Max_cycle;Signal;HPM_P1;HPM_P2
2023/10/19 00:00:20;;;;;;;23.03;12.23;;;;;;;6.78;66.82;99985.22;5047725;28;20206;-60
2023/10/19 00:02:52;;;;;;;19.63;11.53;;;;;;;6.79;66.58;99978.38;5051133;28;20216;-62
2023/10/19 00:05:20;;;;;;;18.87;12.07;;;;;;;6.79;66.14;99975.81;5049488;28;20252;-60
2023/10/19 00:07:49;;;;;;;18.53;11.57;;;;;;;6.77;66.23;99973.25;5050004;28;20324;-59
2023/10/19 00:10:17;;;;;;;15.63;10.83;;;;;;;6.74;65.97;99968.13;5049055;28;20242;-61
2023/10/19 00:12:52;;;;;;;18.67;11.63;;;;;;;6.74;66.91;99960.44;5046362;28;20225;-61
2023/10/19 00:15:23;;;;;;;19.80;11.57;;;;;;;6.75;67.01;99958.75;5049430;28;20233;-62
2023/10/19 00:17:54;;;;;;;18.77;11.47;;;;;;;6.74;66.64;99954.47;5049083;28;20527;-62
2023/10/19 00:20:36;;;;;;;22.67;12.60;;;;;;;6.70;66.59;99951.06;5048844;28;20202;-61
2023/10/19 00:23:05;;;;;;;21.17;12.67;;;;;;;6.69;66.42;99948.47;5050097;28;20277;-61
2023/10/19 00:25:34;;;;;;;23.90;12.83;;;;;;;6.67;67.30;99940.81;5051277;28;20222;-59
2023/10/19 00:28:04;;;;;;;23.90;13.03;;;;;;;6.67;66.84;99940.81;5048017;28;20256;-62
2023/10/19 00:30:35;;;;;;;20.43;12.17;;;;;;;6.66;67.13;99939.06;5047943;28;20230;-62
2023/10/19 00:33:05;;;;;;;25.87;14.00;;;;;;;6.67;67.21;99942.50;5046819;28;20206;-61
2023/10/19 00:35:41;;;;;;;27.87;14.60;;;;;;;6.65;67.41;99942.50;5049387;28;20197;-61
2023/10/19 00:38:38;;;;;;;21.27;14.37;;;;;;;6.63;66.35;99933.09;5050461;28;20611;-62
2023/10/19 00:41:11;;;;;;;22.20;13.80;;;;;;;6.64;66.79;99940.78;5050885;28;20643;-61
2023/10/19 00:43:44;;;;;;;24.83;14.67;;;;;;;6.61;66.55;99934.81;5050679;28;20716;-61
2023/10/19 00:46:20;;;;;;;21.43;13.77;;;;;;;6.57;66.65;99933.94;5049622;28;20288;-60
2023/10/19 00:48:55;;;;;;;21.63;14.83;;;;;;;6.50;66.94;99927.94;5049132;28;20226;-61
2023/10/19 00:51:40;;;;;;;25.50;13.87;;;;;;;6.51;66.36;99926.22;5046643;28;20656;-62
2023/10/19 00:54:13;;;;;;;20.77;14.43;;;;;;;6.49;66.45;99922.84;5049990;28;20221;-61
2023/10/19 00:56:47;;;;;;;19.37;13.70;;;;;;;6.48;66.80;99921.97;5049542;28;20214;-61
2023/10/19 00:59:22;;;;;;;18.20;12.73;;;;;;;6.48;67.01;99924.53;5050061;28;20214;-62
2023/10/19 01:01:53;;;;;;;18.63;13.07;;;;;;;6.49;66.70;99915.16;5049626;28;20292;-60
2023/10/19 01:04:23;;;;;;;21.27;13.80;;;;;;;6.52;66.31;99912.59;5045659;28;20224;-61
2023/10/19 01:07:05;;;;;;;21.30;13.73;;;;;;;6.52;66.45;99915.16;5050144;28;20657;-61
2023/10/19 01:09:36;;;;;;;17.73;12.90;;;;;;;6.50;66.17;99909.16;5044385;28;20238;-63
2023/10/19 01:12:21;;;;;;;20.37;13.33;;;;;;;6.52;66.78;99905.78;5049458;28;20198;-61
2023/10/19 01:15:02;;;;;;;19.17;12.83;;;;;;;6.53;66.33;99892.13;5047739;28;20202;-64
2023/10/19 01:17:33;;;;;;;18.60;13.13;;;;;;;6.52;65.90;99885.31;5050135;28;20237;-60
2023/10/19 01:20:07;;;;;;;18.50;13.37;;;;;;;6.54;66.45;99893.81;5049682;28;20198;-61
2023/10/19 01:22:37;;;;;;;19.63;13.47;;;;;;;6.55;66.13;99894.66;5048405;28;20292;-60
2023/10/19 01:25:10;;;;;;;20.93;13.67;;;;;;;6.56;66.38;99891.28;5048509;28;20228;-63
2023/10/19 01:27:40;;;;;;;21.80;13.37;;;;;;;6.54;65.88;99887.84;5049362;28;20260;-63
2023/10/19 01:30:10;;;;;;;19.13;13.33;;;;;;;6.49;65.49;99881.88;5045107;28;20214;-63
2023/10/19 01:32:38;;;;;;;21.00;12.73;;;;;;;6.47;66.16;99886.13;5051743;28;20657;-64
2023/10/19 01:35:06;;;;;;;21.50;14.20;;;;;;;6.47;66.24;99891.25;5048901;28;20575;-63
2023/10/19 01:37:37;;;;;;;20.83;13.83;;;;;;;6.45;65.95;99882.72;5048791;28;20210;-63
2023/10/19 01:40:06;;;;;;;20.10;14.00;;;;;;;6.41;66.33;99876.75;5048065;28;20704;-64
2023/10/19 01:42:36;;;;;;;19.93;13.43;;;;;;;6.40;66.19;99872.44;5050589;28;20252;-62
2023/10/19 01:45:05;;;;;;;20.23;14.27;;;;;;;6.41;66.77;99868.22;5046571;28;20708;-63
2023/10/19 01:47:35;;;;;;;19.37;12.83;;;;;;;6.40;67.15;99869.03;5050909;28;20201;-64
2023/10/19 01:50:05;;;;;;;21.97;14.07;;;;;;;6.40;66.63;99864.78;5050666;28;20213;-63
2023/10/19 01:52:33;;;;;;;18.63;13.77;;;;;;;6.39;67.30;99867.34;5056159;28;20588;-64
2023/10/19 01:55:07;;;;;;;20.47;13.00;;;;;;;6.38;66.30;99865.66;5049902;28;20559;-66
2023/10/19 01:57:37;;;;;;;19.73;13.23;;;;;;;6.34;66.53;99869.91;5045059;28;20225;-62
2023/10/19 02:00:11;;;;;;;17.53;12.93;;;;;;;6.32;67.18;99855.38;5047324;28;20213;-63
2023/10/19 02:02:40;;;;;;;19.23;12.90;;;;;;;6.29;67.07;99862.19;5045430;28;20554;-61
2023/10/19 02:05:14;;;;;;;21.13;13.80;;;;;;;6.26;67.27;99862.19;5044954;28;20205;-63
2023/10/19 02:07:43;;;;;;;17.07;12.67;;;;;;;6.25;67.49;99860.47;5048837;28;20280;-62
2023/10/19 02:10:10;;;;;;;22.07;13.40;;;;;;;6.23;66.90;99859.63;5046264;28;20222;-62
2023/10/19 02:12:42;;;;;;;18.87;13.10;;;;;;;6.22;66.71;99862.16;5050396;28;20244;-61
2023/10/19 02:15:09;;;;;;;18.33;12.63;;;;;;;6.16;67.40;99855.34;5046657;28;20225;-62
2023/10/19 02:17:37;;;;;;;20.47;13.13;;;;;;;6.14;67.72;99853.63;5048409;28;20202;-62
2023/10/19 02:20:24;;;;;;;18.77;13.23;;;;;;;6.13;67.74;99857.03;5048909;28;20709;-66
2023/10/19 02:22:57;;;;;;;21.20;13.33;;;;;;;6.10;67.36;99849.34;5049611;28;20209;-62
2023/10/19 02:25:31;;;;;;;20.93;13.50;;;;;;;6.11;67.62;99854.44;5048440;28;20210;-63
2023/10/19 02:28:00;;;;;;;22.67;13.73;;;;;;;6.10;67.41;99852.75;5051735;28;20233;-67
2023/10/19 02:30:27;;;;;;;22.67;14.17;;;;;;;6.10;67.20;99841.66;5051131;28;20229;-62
2023/10/19 02:32:55;;;;;;;25.03;14.50;;;;;;;6.12;67.56;99842.53;5052215;28;20241;-60
2023/10/19 02:35:23;;;;;;;17.37;12.67;;;;;;;6.11;67.76;99840.81;5054919;28;20245;-60
2023/10/19 02:37:50;;;;;;;18.53;13.27;;;;;;;6.10;67.13;99839.97;5052812;28;20198;-62
2023/10/19 02:40:21;;;;;;;21.37;13.63;;;;;;;6.08;67.28;99830.59;5052535;28;20624;-59
2023/10/19 02:42:48;;;;;;;18.40;14.03;;;;;;;6.11;67.67;99835.69;5052288;28;20194;-61
2023/10/19 02:45:18;;;;;;;17.30;13.77;;;;;;;6.11;67.33;99838.25;5052407;28;20244;-61
2023/10/19 02:47:46;;;;;;;22.67;15.40;;;;;;;6.11;67.56;99836.53;5051624;28;20632;-60
2023/10/19 02:50:16;;;;;;;18.60;13.33;;;;;;;6.14;67.22;99826.34;5052246;28;20615;-60
2023/10/19 02:52:43;;;;;;;21.03;14.40;;;;;;;6.15;66.41;99822.06;5057461;28;20194;-59
2023/10/19 02:55:11;;;;;;;21.43;15.07;;;;;;;6.14;66.48;99823.78;5052164;28;20602;-59
2023/10/19 02:57:38;;;;;;;17.87;13.17;;;;;;;6.14;66.93;99820.38;5050165;28;20213;-60
2023/10/19 03:00:12;;;;;;;21.73;12.80;;;;;;;6.12;67.53;99811.84;5052176;28;20302;-64
2023/10/19 03:02:41;;;;;;;20.47;14.03;;;;;;;6.12;66.89;99812.69;5049207;28;20197;-59
2023/10/19 03:05:14;;;;;;;19.97;14.00;;;;;;;6.08;66.90;99816.09;5050255;28;20232;-61
2023/10/19 03:07:43;;;;;;;19.40;13.47;;;;;;;6.06;67.46;99807.56;5051079;28;20202;-60
2023/10/19 03:10:23;;;;;;;21.93;14.03;;;;;;;6.04;67.62;99806.72;5052277;28;20314;-58
2023/10/19 03:12:50;;;;;;;21.17;14.53;;;;;;;6.07;67.26;99798.19;5051672;28;20206;-62
2023/10/19 03:15:21;;;;;;;19.97;13.87;;;;;;;6.10;67.81;99793.94;5051178;28;20210;-59
2023/10/19 03:17:49;;;;;;;19.97;14.20;;;;;;;6.09;67.14;99791.38;5054811;28;20250;-59
2023/10/19 03:20:23;;;;;;;19.93;14.30;;;;;;;6.06;67.57;99792.22;5049619;28;20537;-61
2023/10/19 03:22:51;;;;;;;20.47;13.70;;;;;;;6.04;67.66;99793.94;5051808;28;20194;-60
2023/10/19 03:28:08;;;;;;;22.13;13.90;;;;;;;6.00;67.13;99777.72;5051617;28;20256;-60
2023/10/19 03:30:39;;;;;;;18.23;13.37;;;;;;;6.00;67.72;99787.06;5050576;28;20253;-59
2023/10/19 03:33:09;;;;;;;18.23;13.57;;;;;;;5.96;67.57;99780.25;5051471;28;20306;-60
2023/10/19 03:35:38;;;;;;;18.60;13.43;;;;;;;5.92;67.93;99774.25;5049133;28;20247;-58
2023/10/19 03:38:14;;;;;;;21.70;13.17;;;;;;;5.90;67.46;99770.00;5049524;28;20723;-64
2023/10/19 03:40:46;;;;;;;20.53;14.33;;;;;;;5.84;67.79;99770.81;5050155;28;20649;-58
2023/10/19 03:43:18;;;;;;;21.97;14.00;;;;;;;5.80;68.41;99769.09;5052319;28;20202;-67
2023/10/19 03:45:50;;;;;;;22.30;14.13;;;;;;;5.77;68.82;99764.81;5051276;28;20209;-60
2023/10/19 03:48:26;;;;;;;21.63;13.93;;;;;;;5.72;68.77;99751.19;5048967;28;20692;-58
2023/10/19 03:50:55;;;;;;;21.50;15.60;;;;;;;5.71;69.23;99751.19;5050261;28;20241;-59
2023/10/19 03:53:23;;;;;;;25.17;16.47;;;;;;;5.65;69.59;99738.38;5051607;28;20260;-60
2023/10/19 03:55:52;;;;;;;23.03;15.43;;;;;;;5.62;69.89;99733.25;5050200;28;20277;-59
2023/10/19 03:58:23;;;;;;;23.67;16.20;;;;;;;5.59;70.00;99728.97;5049788;28;20202;-59
2023/10/19 04:00:51;;;;;;;28.57;16.87;;;;;;;5.63;69.74;99730.69;5051674;28;20298;-62
2023/10/19 04:03:24;;;;;;;24.07;16.23;;;;;;;5.64;69.83;99729.84;5048879;28;20644;-64
2023/10/19 04:05:53;;;;;;;26.10;16.70;;;;;;;5.63;70.40;99723.00;5050933;28;20208;-63
2023/10/19 04:08:26;;;;;;;26.07;16.10;;;;;;;5.64;70.30;99713.66;5050087;28;20237;-61
2023/10/19 04:13:47;;;;;;;23.93;15.17;;;;;;;5.62;69.96;99708.53;5081996;27;20574;-59
2023/10/19 04:16:15;;;;;;;23.50;16.23;;;;;;;5.65;69.96;99703.44;5069373;28;20201;-59
2023/10/19 04:18:44;;;;;;;24.57;16.50;;;;;;;5.67;70.00;99695.75;5072917;28;20208;-59
2023/10/19 04:21:11;;;;;;;27.67;17.80;;;;;;;5.68;69.87;99692.38;5067186;28;20201;-59
2023/10/19 04:23:40;;;;;;;24.77;16.07;;;;;;;5.67;69.43;99691.53;5068109;28;20209;-60
2023/10/19 04:26:11;;;;;;;23.00;15.00;;;;;;;5.71;69.55;99692.38;5068096;28;20618;-61
2023/10/19 04:28:49;;;;;;;23.70;16.13;;;;;;;5.68;69.50;99683.00;5066836;28;20216;-59
2023/10/19 04:31:19;;;;;;;23.63;15.73;;;;;;;5.67;69.75;99678.75;5066242;28;20209;-62
2023/10/19 04:33:47;;;;;;;22.87;17.03;;;;;;;5.65;69.69;99688.09;5066212;28;20240;-60
2023/10/19 04:36:16;;;;;;;23.87;15.60;;;;;;;5.64;69.65;99680.44;5052669;28;20306;-59
2023/10/19 04:38:44;;;;;;;22.37;15.17;;;;;;;5.60;70.00;99665.94;5061669;28;20236;-59
2023/10/19 04:41:12;;;;;;;21.73;15.30;;;;;;;5.61;70.11;99671.06;5072101;28;20769;-60
2023/10/19 04:43:43;;;;;;;23.63;15.37;;;;;;;5.64;70.22;99681.28;5076825;28;20208;-60
2023/10/19 04:46:12;;;;;;;26.87;16.13;;;;;;;5.67;69.72;99668.53;5075832;28;20648;-59
2023/10/19 04:48:42;;;;;;;26.00;15.50;;;;;;;5.70;69.25;99660.84;5065470;28;20561;-59
2023/10/19 04:51:10;;;;;;;23.07;16.00;;;;;;;5.71;69.67;99659.16;5065683;28;20224;-60
2023/10/19 04:53:38;;;;;;;24.23;14.97;;;;;;;5.75;69.51;99663.44;5067641;28;20218;-61
2023/10/19 04:56:09;;;;;;;22.53;15.43;;;;;;;5.79;69.50;99657.47;5069151;28;20300;-65
2023/10/19 04:58:37;;;;;;;24.10;16.23;;;;;;;5.79;69.62;99655.75;5070999;28;20657;-63
2023/10/19 05:01:06;;;;;;;24.43;16.47;;;;;;;5.80;69.45;99652.34;5062692;28;20212;-63
2023/10/19 05:03:35;;;;;;;22.57;15.33;;;;;;;5.80;69.37;99660.00;5066582;28;20372;-63
2023/10/19 05:06:05;;;;;;;23.00;15.87;;;;;;;5.80;68.95;99665.13;5065504;28;20205;-62
2023/10/19 05:08:33;;;;;;;23.53;15.50;;;;;;;5.80;69.32;99667.69;5066518;28;20209;-62
2023/10/19 05:11:01;;;;;;;25.63;15.10;;;;;;;5.86;68.99;99660.88;5065199;28;20201;-64
2023/10/19 05:13:31;;;;;;;22.67;15.10;;;;;;;5.89;68.89;99661.75;5069332;28;20605;-63
2023/10/19 05:15:59;;;;;;;23.67;15.57;;;;;;;5.92;68.61;99653.19;5062955;28;20198;-64
2023/10/19 05:18:27;;;;;;;20.57;14.23;;;;;;;5.96;68.67;99657.50;5063882;28;20645;-64
2023/10/19 05:20:56;;;;;;;24.63;15.47;;;;;;;5.96;68.54;99652.38;5064460;28;20224;-64
2023/10/19 05:23:26;;;;;;;21.23;14.43;;;;;;;5.98;69.20;99660.94;5054129;28;20229;-63
2023/10/19 05:26:02;;;;;;;23.10;15.40;;;;;;;6.02;69.86;99660.06;5054632;28;20216;-59
2023/10/19 05:28:30;;;;;;;17.10;12.37;;;;;;;6.01;68.61;99659.22;5050223;28;20289;-64
2023/10/19 05:30:59;;;;;;;18.60;12.60;;;;;;;6.07;68.52;99660.91;5054297;28;20235;-63
2023/10/19 05:33:29;;;;;;;18.60;12.80;;;;;;;6.13;68.65;99658.38;5051484;28;20236;-65
2023/10/19 05:35:58;;;;;;;28.10;14.67;;;;;;;6.19;67.96;99654.97;5047710;28;20676;-65
2023/10/19 05:38:27;;;;;;;19.60;13.47;;;;;;;6.25;68.15;99660.06;5052802;28;20340;-64
2023/10/19 05:40:58;;;;;;;19.63;14.03;;;;;;;6.30;67.95;99650.72;5054022;28;20211;-65
2023/10/19 05:43:28;;;;;;;29.50;17.93;;;;;;;6.41;67.45;99648.13;5054146;28;20206;-62
2023/10/19 05:45:56;;;;;;;17.97;12.57;;;;;;;6.48;67.43;99645.56;5053354;28;20202;-62
2023/10/19 05:48:25;;;;;;;19.93;12.67;;;;;;;6.58;66.28;99654.06;5056386;28;20712;-62
2023/10/19 05:50:53;;;;;;;17.63;13.07;;;;;;;6.62;66.46;99650.63;5059839;28;20206;-61
2023/10/19 05:53:22;;;;;;;18.30;11.37;;;;;;;6.64;65.81;99646.38;5052156;28;20305;-61
2023/10/19 05:55:51;;;;;;;18.23;12.97;;;;;;;6.66;65.57;99652.34;5055420;28;20292;-62
2023/10/19 05:58:20;;;;;;;21.57;12.50;;;;;;;6.67;65.79;99650.66;5057227;28;20201;-61
2023/10/19 06:00:51;;;;;;;20.10;12.20;;;;;;;6.72;65.52;99641.25;5058372;28;20198;-64
2023/10/19 06:03:20;;;;;;;19.40;12.03;;;;;;;6.77;64.97;99644.63;5046959;28;20317;-62
2023/10/19 06:05:49;;;;;;;16.00;10.03;;;;;;;6.84;64.97;99646.31;5055303;28;20224;-61
2023/10/19 06:08:18;;;;;;;16.13;11.17;;;;;;;6.88;64.37;99635.22;5046752;28;20676;-63
2023/10/19 06:10:53;;;;;;;19.40;11.20;;;;;;;6.88;63.29;99627.53;5047271;28;20205;-61
2023/10/19 06:13:22;;;;;;;23.57;12.40;;;;;;;6.78;62.46;99624.16;5047952;28;20547;-61
2023/10/19 06:15:51;;;;;;;15.10;11.83;;;;;;;6.77;62.50;99635.28;5052123;28;20289;-62
2023/10/19 06:18:20;;;;;;;17.87;12.70;;;;;;;6.79;62.55;99642.94;5062519;28;20205;-63
2023/10/19 06:20:50;;;;;;;18.27;12.03;;;;;;;6.82;61.93;99637.81;5056996;28;20206;-62
2023/10/19 06:23:18;;;;;;;18.17;12.80;;;;;;;6.91;61.98;99642.88;5048213;28;20202;-61
2023/10/19 06:25:46;;;;;;;22.13;13.53;;;;;;;7.01;61.76;99638.59;5051347;28;20216;-61
2023/10/19 06:28:16;;;;;;;21.80;13.87;;;;;;;7.06;61.92;99634.28;5049708;28;20574;-60
2023/10/19 06:30:45;;;;;;;28.60;13.77;;;;;;;7.16;61.89;99632.56;5055589;28;20649;-62
2023/10/19 06:33:13;;;;;;;24.77;14.07;;;;;;;7.34;60.98;99634.19;5065746;28;20217;-61
2023/10/19 06:35:41;;;;;;;22.30;13.87;;;;;;;7.48;61.54;99629.84;5059381;28;20293;-60
2023/10/19 06:38:09;;;;;;;23.73;14.40;;;;;;;7.57;59.52;99622.09;5060163;28;20669;-60
2023/10/19 06:40:37;;;;;;;21.63;13.77;;;;;;;7.58;59.09;99622.94;5051842;28;20263;-61
2023/10/19 06:43:06;;;;;;;20.33;14.50;;;;;;;7.56;59.15;99617.81;5056089;28;20228;-60
2023/10/19 06:45:35;;;;;;;22.97;14.33;;;;;;;7.58;59.33;99613.53;5064085;28;20287;-59
2023/10/19 06:48:04;;;;;;;19.60;14.53;;;;;;;7.51;59.14;99624.66;5052506;28;20230;-61
2023/10/19 06:50:33;;;;;;;22.63;15.00;;;;;;;7.47;59.58;99623.88;5056494;28;20300;-59
2023/10/19 06:53:03;;;;;;;20.13;13.20;;;;;;;7.38;58.33;99625.63;5053024;28;20300;-62
2023/10/19 06:55:32;;;;;;;24.17;13.83;;;;;;;7.29;59.44;99620.53;5062562;28;20298;-61
2023/10/19 06:58:01;;;;;;;22.83;14.47;;;;;;;7.20;59.91;99619.72;5050545;28;20206;-59
2023/10/19 07:00:29;;;;;;;26.03;14.57;;;;;;;7.22;60.40;99607.75;5049930;28;20218;-61
2023/10/19 07:03:00;;;;;;;19.43;13.37;;;;;;;7.23;59.76;99606.91;5054000;28;20208;-61
2023/10/19 07:05:30;;;;;;;19.73;14.03;;;;;;;7.22;60.11;99597.50;5046128;28;20201;-61
2023/10/19 07:07:59;;;;;;;24.77;13.03;;;;;;;7.22;60.13;99596.66;5052543;28;20201;-61
2023/10/19 07:10:28;;;;;;;20.97;13.90;;;;;;;7.20;60.37;99594.09;5050394;28;20669;-62
2023/10/19 07:12:57;;;;;;;23.67;14.27;;;;;;;7.22;60.56;99601.78;5045470;28;20242;-63
2023/10/19 07:15:26;;;;;;;22.83;15.10;;;;;;;7.21;61.30;99605.19;5047033;28;20209;-65
2023/10/19 07:17:55;;;;;;;23.10;14.10;;;;;;;7.25;60.64;99602.63;5051184;28;20212;-66
2023/10/19 07:20:28;;;;;;;21.57;15.33;;;;;;;7.26;61.11;99594.06;5052664;28;20596;-65
2023/10/19 07:23:00;;;;;;;24.33;14.63;;;;;;;7.31;61.00;99595.75;5047691;28;20201;-66
2023/10/19 07:25:29;;;;;;;24.37;15.00;;;;;;;7.34;60.69;99595.75;5045754;28;20240;-65
2023/10/19 07:27:59;;;;;;;20.27;13.70;;;;;;;7.39;60.72;99594.84;5038453;28;20248;-65
2023/10/19 07:30:28;;;;;;;19.57;14.83;;;;;;;7.43;60.93;99576.00;5039936;28;20259;-68
2023/10/19 07:32:58;;;;;;;23.27;15.23;;;;;;;7.50;60.50;99566.59;5057865;28;20615;-64
2023/10/19 07:35:30;;;;;;;24.40;14.90;;;;;;;7.59;60.31;99566.53;5058906;28;20213;-65
2023/10/19 07:38:04;;;;;;;20.33;14.53;;;;;;;7.70;60.60;99556.19;5042854;28;20205;-65
2023/10/19 07:40:33;;;;;;;22.63;13.73;;;;;;;7.79;60.26;99555.25;5055954;28;20243;-64
2023/10/19 07:43:01;;;;;;;22.43;13.87;;;;;;;7.93;59.86;99556.00;5058030;28;20283;-63
2023/10/19 07:45:31;;;;;;;21.30;14.80;;;;;;;8.12;59.68;99547.25;5049538;28;20748;-62
2023/10/19 07:48:05;;;;;;;22.13;15.23;;;;;;;8.31;58.35;99554.78;5048630;28;20210;-66
2023/10/19 07:50:36;;;;;;;22.93;15.57;;;;;;;8.35;58.92;99557.28;5047427;28;20652;-64
2023/10/19 07:53:05;;;;;;;23.70;15.43;;;;;;;8.26;59.00;99539.44;5049396;28;21437;-64
2023/10/19 07:55:33;;;;;;;22.63;15.87;;;;;;;8.18;59.47;99543.81;5048707;28;20221;-65
2023/10/19 07:58:03;;;;;;;22.03;14.37;;;;;;;8.11;59.54;99535.31;5044682;28;20237;-64
2023/10/19 08:00:33;;;;;;;20.13;14.03;;;;;;;8.04;59.62;99535.38;5045078;28;20294;-66
2023/10/19 08:03:02;;;;;;;24.53;13.77;;;;;;;7.93;60.08;99545.75;5046988;28;20735;-67
2023/10/19 08:05:31;;;;;;;19.83;13.80;;;;;;;7.87;61.29;99532.97;5046707;28;20210;-66
2023/10/19 08:08:00;;;;;;;20.43;13.87;;;;;;;7.86;61.21;99533.84;5046753;28;20217;-65
2023/10/19 08:10:29;;;;;;;21.00;13.83;;;;;;;7.81;60.64;99526.19;5046255;28;20247;-65
2023/10/19 08:12:58;;;;;;;19.60;12.60;;;;;;;7.79;61.08;99529.63;5046206;28;20275;-65
2023/10/19 08:15:30;;;;;;;21.90;14.37;;;;;;;7.79;60.61;99532.19;5054022;28;20704;-66
2023/10/19 08:17:58;;;;;;;20.50;12.57;;;;;;;7.82;61.72;99527.88;5048613;28;20287;-63
2023/10/19 08:20:30;;;;;;;20.33;13.13;;;;;;;7.80;61.38;99523.63;5061069;28;20205;-68
2023/10/19 08:23:02;;;;;;;17.83;12.90;;;;;;;7.89;60.92;99526.13;5059608;28;20212;-65
2023/10/19 08:25:30;;;;;;;21.70;13.83;;;;;;;7.94;61.93;99512.38;5046318;28;20209;-64
2023/10/19 08:28:01;;;;;;;16.20;12.13;;;;;;;8.01;61.32;99507.19;5046435;28;20215;-66
2023/10/19 08:30:29;;;;;;;24.93;14.43;;;;;;;8.01;61.79;99499.50;5051086;28;20251;-67
2023/10/19 08:32:58;;;;;;;26.37;15.67;;;;;;;8.00;61.61;99501.22;5052448;28;20644;-66
2023/10/19 08:35:27;;;;;;;19.33;14.00;;;;;;;8.01;61.75;99495.22;5047125;28;20745;-67
2023/10/19 08:37:57;;;;;;;19.90;14.00;;;;;;;8.15;61.78;99485.66;5054394;28;20259;-66
2023/10/19 08:40:28;;;;;;;22.17;14.00;;;;;;;8.26;61.52;99482.13;5051526;28;20616;-66
2023/10/19 08:42:56;;;;;;;22.73;14.97;;;;;;;8.33;60.63;99476.06;5065406;28;20224;-65
2023/10/19 08:45:25;;;;;;;21.73;13.17;;;;;;;8.37;61.08;99477.72;5055128;28;20198;-64
2023/10/19 08:47:56;;;;;;;18.40;12.53;;;;;;;8.33;61.26;99468.34;5046017;28;20974;-66
2023/10/19 08:50:25;;;;;;;17.87;12.33;;;;;;;8.36;61.95;99460.63;5048187;28;20206;-66
2023/10/19 08:52:54;;;;;;;20.73;13.50;;;;;;;8.44;62.38;99461.41;5050927;28;20210;-66
2023/10/19 08:55:23;;;;;;;19.13;12.80;;;;;;;8.56;61.45;99466.38;5045483;28;20599;-65
2023/10/19 08:58:14;;;;;;;25.63;12.53;;;;;;;8.70;61.17;99459.34;5052706;28;20205;-65
2023/10/19 09:00:48;;;;;;;19.27;12.80;;;;;;;8.82;61.29;99447.22;5060202;28;20206;-67
2023/10/19 09:03:17;;;;;;;20.07;12.23;;;;;;;8.97;60.75;99453.84;5051100;28;20289;-65
2023/10/19 09:05:46;;;;;;;13.90;10.63;;;;;;;9.03;59.90;99449.47;5044528;28;20201;-66
2023/10/19 09:08:17;;;;;;;20.33;10.37;;;;;;;9.14;60.02;99439.88;5053257;28;20206;-65
2023/10/19 09:10:46;;;;;;;15.57;10.50;;;;;;;9.15;59.17;99441.56;5053922;28;20696;-67
2023/10/19 09:13:18;;;;;;;17.70;9.90;;;;;;;9.20;59.67;99438.91;5052074;28;20748;-67
2023/10/19 09:15:49;;;;;;;13.77;9.83;;;;;;;9.29;59.40;99443.09;5056043;28;20763;-66
2023/10/19 09:18:19;;;;;;;13.50;9.40;;;;;;;9.31;58.73;99436.19;5048471;28;20209;-68
2023/10/19 09:21:02;;;;;;;14.67;10.63;;;;;;;9.38;58.96;99432.63;5042778;28;20308;-66
2023/10/19 09:23:31;;;;;;;14.07;10.27;;;;;;;9.52;58.62;99419.56;5056543;28;20202;-66
2023/10/19 09:26:02;;;;;;;13.03;8.93;;;;;;;9.67;57.21;99414.97;5057532;28;20689;-69
2023/10/19 09:28:35;;;;;;;12.73;9.10;;;;;;;9.68;57.76;99408.09;5049725;28;20198;-64
2023/10/19 09:31:05;;;;;;;13.47;8.87;;;;;;;9.72;57.16;99411.47;5049321;28;20631;-64
2023/10/19 09:33:34;;;;;;;13.73;9.30;;;;;;;9.78;57.73;99408.78;5059338;28;20602;-62
2023/10/19 09:36:06;;;;;;;15.67;9.27;;;;;;;9.81;57.12;99398.44;5050989;28;20313;-62
2023/10/19 09:38:35;;;;;;;14.83;9.03;;;;;;;9.81;57.03;99393.31;5053301;28;20251;-64
2023/10/19 09:41:03;;;;;;;15.67;9.07;;;;;;;9.86;57.30;99391.47;5048029;28;20218;-64
2023/10/19 09:43:36;;;;;;;15.93;8.77;;;;;;;9.86;56.79;99374.31;5059813;28;20633;-64
2023/10/19 09:46:08;;;;;;;11.77;8.23;;;;;;;9.93;56.92;99372.47;5055568;28;20297;-64
2023/10/19 09:48:41;;;;;;;13.27;8.20;;;;;;;9.97;56.53;99371.53;5054362;28;20239;-62
2023/10/19 09:51:11;;;;;;;10.90;7.50;;;;;;;9.92;56.19;99357.91;5051297;28;20209;-63
2023/10/19 09:53:44;;;;;;;9.97;7.47;;;;;;;9.85;56.24;99351.19;5051685;28;20673;-62
2023/10/19 09:56:16;;;;;;;9.77;7.33;;;;;;;9.87;56.23;99346.88;5051638;28;20217;-62
2023/10/19 09:58:52;;;;;;;9.87;7.30;;;;;;;9.90;55.85;99339.94;5053606;28;20248;-64
2023/10/19 10:01:21;;;;;;;9.60;7.23;;;;;;;10.02;55.33;99332.84;5050410;28;20214;-63
2023/10/19 10:03:51;;;;;;;9.57;6.67;;;;;;;10.11;55.04;99325.78;5061075;28;20652;-63
2023/10/19 10:06:29;;;;;;;8.73;6.37;;;;;;;10.13;53.92;99333.47;5057463;28;20574;-65
2023/10/19 10:09:00;;;;;;;9.57;6.57;;;;;;;10.08;53.76;99332.72;5053755;28;20211;-65
2023/10/19 10:11:29;;;;;;;9.73;6.07;;;;;;;10.00;54.29;99321.72;5054122;28;20240;-66
2023/10/19 10:13:59;;;;;;;8.10;6.13;;;;;;;9.92;53.80;99312.44;5056747;28;20248;-63
2023/10/19 10:16:29;;;;;;;10.40;6.63;;;;;;;9.94;53.86;99304.69;5053432;28;20229;-63
2023/10/19 10:19:00;;;;;;;11.63;6.77;;;;;;;9.93;54.59;99301.25;5048234;28;20260;-65
2023/10/19 10:21:30;;;;;;;9.73;6.93;;;;;;;10.04;54.50;99302.78;5049424;28;20206;-65
2023/10/19 10:24:00;;;;;;;9.43;6.80;;;;;;;10.14;54.42;99304.28;5051630;28;20283;-65
2023/10/19 10:26:35;;;;;;;12.37;7.33;;;;;;;10.21;54.02;99287.81;5051235;28;20202;-64
2023/10/19 10:29:14;;;;;;;10.50;6.83;;;;;;;10.30;53.83;99292.78;5048909;28;20212;-64
2023/10/19 10:31:43;;;;;;;11.10;7.63;;;;;;;10.31;53.54;99284.19;5053852;28;20209;-62
2023/10/19 10:34:12;;;;;;;8.50;6.70;;;;;;;10.28;53.40;99283.41;5051527;28;20206;-65
2023/10/19 10:37:02;;;;;;;11.70;7.10;;;;;;;10.28;53.67;99280.84;5051904;28;20604;-64
2023/10/19 10:39:31;;;;;;;10.07;6.53;;;;;;;10.28;53.19;99281.69;5050618;28;20592;-65
2023/10/19 10:42:00;;;;;;;11.30;6.77;;;;;;;10.18;53.47;99281.88;5045754;28;20256;-64
2023/10/19 10:44:45;;;;;;;11.47;8.10;;;;;;;10.10;53.76;99270.03;5055227;28;20596;-70
2023/10/19 10:47:21;;;;;;;10.47;7.00;;;;;;;10.11;53.94;99268.28;5047631;28;20205;-67
2023/10/19 10:49:54;;;;;;;10.40;7.13;;;;;;;10.10;53.69;99264.88;5057365;28;20672;-65
2023/10/19 10:52:31;;;;;;;9.60;6.30;;;;;;;10.08;53.94;99264.06;5050514;28;20498;-68
2023/10/19 10:55:10;;;;;;;9.83;6.10;;;;;;;10.04;53.92;99249.56;5048705;28;20206;-68
2023/10/19 10:57:40;;;;;;;12.37;7.07;;;;;;;10.04;54.09;99247.00;5045151;28;20202;-69
2023/10/19 11:00:15;;;;;;;9.97;6.83;;;;;;;10.08;54.24;99246.03;5048037;28;20304;-67
2023/10/19 11:02:45;;;;;;;11.67;7.30;;;;;;;10.09;54.61;99232.31;5052042;28;20213;-69
2023/10/19 11:05:16;;;;;;;12.60;7.27;;;;;;;10.12;54.34;99229.63;5051326;28;20198;-66
2023/10/19 11:08:07;;;;;;;12.50;6.73;;;;;;;10.16;54.19;99235.56;5044818;28;20205;-68
2023/10/19 11:10:36;;;;;;;9.57;6.80;;;;;;;10.24;54.21;99232.84;5049362;28;20207;-70
2023/10/19 11:13:05;;;;;;;10.20;6.67;;;;;;;10.28;53.93;99219.03;5051909;28;20273;-71
2023/10/19 11:15:36;;;;;;;13.63;6.77;;;;;;;10.30;54.03;99217.25;5055495;28;20214;-71
2023/10/19 11:18:07;;;;;;;10.60;6.93;;;;;;;10.34;54.04;99213.72;5047395;28;20699;-69
2023/10/19 11:20:35;;;;;;;10.37;6.10;;;;;;;10.42;53.87;99209.25;5058981;28;20284;-72
2023/10/19 11:23:03;;;;;;;14.07;7.20;;;;;;;10.46;53.61;99200.56;5050845;28;20206;-71
2023/10/19 11:25:32;;;;;;;10.87;7.00;;;;;;;10.46;53.43;99195.44;5046716;28;20249;-70
2023/10/19 11:28:04;;;;;;;9.10;6.43;;;;;;;10.48;53.40;99191.06;5047355;28;20230;-70
2023/10/19 11:30:35;;;;;;;9.57;6.63;;;;;;;10.45;53.48;99183.41;5048923;28;20202;-68
2023/10/19 11:33:03;;;;;;;9.37;6.80;;;;;;;10.44;54.00;99181.72;5047076;28;20203;-73
2023/10/19 11:35:32;;;;;;;12.20;6.73;;;;;;;10.51;54.30;99183.28;5047313;28;20197;-70
2023/10/19 11:38:02;;;;;;;9.67;6.33;;;;;;;10.55;53.38;99184.88;5049417;28;20290;-67
2023/10/19 11:40:30;;;;;;;9.93;6.53;;;;;;;10.56;53.32;99176.25;5051996;28;20218;-69
2023/10/19 11:43:00;;;;;;;9.13;6.57;;;;;;;10.50;52.88;99166.13;5049438;28;20296;-68
2023/10/19 11:45:29;;;;;;;9.80;6.43;;;;;;;10.44;52.94;99168.84;5051877;28;20198;-70
2023/10/19 11:47:59;;;;;;;10.37;6.03;;;;;;;10.36;53.20;99170.78;5044979;28;20206;-70